sensor_id;sensor_type;location;lat;lon;timestamp;P1;durP1;ratioP1;P2;durP2;ratioP2
26946;SDS011;14501;52.282;10.560;2023-08-06T00:01:30;5.40;;;4.82;;
26946;SDS011;14501;52.282;10.560;2023-08-06T00:03:56;5.90;;;4.50;;
26946;SDS011;14501;52.282;10.560;2023-08-06T00:06:21;5.10;;;4.57;;
26946;SDS011;14501;52.282;10.560;2023-08-06T00:08:47;5.43;;;4.88;;
26946;SDS011;14501;52.282;10.560;2023-08-06T00:11:12;7.60;;;4.90;;
26946;SDS011;14501;52.282;10.560;2023-08-06T00:13:38;5.68;;;4.75;;
26946;SDS011;14501;52.282;10.560;2023-08-06T00:16:13;6.05;;;4.70;;
26946;SDS011;14501;52.282;10.560;2023-08-06T00:18:39;4.93;;;4.43;;
26946;SDS011;14501;52.282;10.560;2023-08-06T00:21:04;8.73;;;4.72;;
26946;SDS011;14501;52.282;10.560;2023-08-06T00:23:30;8.95;;;4.88;;
26946;SDS011;14501;52.282;10.560;2023-08-06T00:25:56;5.53;;;4.93;;
26946;SDS011;14501;52.282;10.560;2023-08-06T00:28:21;7.03;;;5.28;;
26946;SDS011;14501;52.282;10.560;2023-08-06T00:30:52;7.20;;;5.35;;
26946;SDS011;14501;52.282;10.560;2023-08-06T00:33:18;6.53;;;4.60;;
26946;SDS011;14501;52.282;10.560;2023-08-06T00:35:44;4.10;;;2.42;;
26946;SDS011;14501;52.282;10.560;2023-08-06T00:38:10;3.53;;;2.60;;
26946;SDS011;14501;52.282;10.560;2023-08-06T00:40:35;3.40;;;2.10;;
26946;SDS011;14501;52.282;10.560;2023-08-06T00:43:01;4.05;;;3.40;;
26946;SDS011;14501;52.282;10.560;2023-08-06T00:45:26;4.57;;;3.65;;
26946;SDS011;14501;52.282;10.560;2023-08-06T00:47:54;5.10;;;4.60;;
26946;SDS011;14501;52.282;10.560;2023-08-06T00:50:21;7.18;;;5.57;;
26946;SDS011;14501;52.282;10.560;2023-08-06T00:52:47;5.57;;;5.05;;
26946;SDS011;14501;52.282;10.560;2023-08-06T00:55:14;7.00;;;3.45;;
26946;SDS011;14501;52.282;10.560;2023-08-06T00:57:40;5.18;;;3.97;;
26946;SDS011;14501;52.282;10.560;2023-08-06T01:00:06;6.35;;;4.38;;
26946;SDS011;14501;52.282;10.560;2023-08-06T01:02:32;5.03;;;4.10;;
26946;SDS011;14501;52.282;10.560;2023-08-06T01:04:58;5.35;;;3.95;;
26946;SDS011;14501;52.282;10.560;2023-08-06T01:15:54;5.68;;;3.78;;
26946;SDS011;14501;52.282;10.560;2023-08-06T01:18:24;4.82;;;3.35;;
26946;SDS011;14501;52.282;10.560;2023-08-06T01:20:50;4.07;;;3.55;;
26946;SDS011;14501;52.282;10.560;2023-08-06T01:23:16;4.60;;;4.13;;
26946;SDS011;14501;52.282;10.560;2023-08-06T01:28:18;3.55;;;3.25;;
26946;SDS011;14501;52.282;10.560;2023-08-06T01:30:47;4.53;;;4.10;;
26946;SDS011;14501;52.282;10.560;2023-08-06T01:33:16;5.15;;;4.63;;
26946;SDS011;14501;52.282;10.560;2023-08-06T01:35:46;5.43;;;4.03;;
26946;SDS011;14501;52.282;10.560;2023-08-06T01:38:14;5.35;;;4.07;;
26946;SDS011;14501;52.282;10.560;2023-08-06T01:40:40;7.38;;;4.78;;
26946;SDS011;14501;52.282;10.560;2023-08-06T01:43:06;7.18;;;4.57;;
26946;SDS011;14501;52.282;10.560;2023-08-06T01:45:31;5.82;;;4.90;;
26946;SDS011;14501;52.282;10.560;2023-08-06T01:47:57;5.38;;;4.85;;
26946;SDS011;14501;52.282;10.560;2023-08-06T01:50:22;5.55;;;4.60;;
26946;SDS011;14501;52.282;10.560;2023-08-06T01:52:48;7.80;;;5.03;;
26946;SDS011;14501;52.282;10.560;2023-08-06T01:55:13;6.40;;;3.90;;
26946;SDS011;14501;52.282;10.560;2023-08-06T01:57:39;5.43;;;4.07;;
26946;SDS011;14501;52.282;10.560;2023-08-06T02:00:05;6.00;;;4.53;;
26946;SDS011;14501;52.282;10.560;2023-08-06T02:02:31;5.50;;;3.88;;
26946;SDS011;14501;52.282;10.560;2023-08-06T02:04:58;5.85;;;3.90;;
26946;SDS011;14501;52.282;10.560;2023-08-06T02:07:24;7.50;;;3.80;;
26946;SDS011;14501;52.282;10.560;2023-08-06T02:09:49;7.22;;;4.70;;
26946;SDS011;14501;52.282;10.560;2023-08-06T02:12:15;6.05;;;4.50;;
26946;SDS011;14501;52.282;10.560;2023-08-06T02:14:40;7.60;;;4.40;;
26946;SDS011;14501;52.282;10.560;2023-08-06T02:17:06;7.82;;;4.93;;
26946;SDS011;14501;52.282;10.560;2023-08-06T02:19:32;7.53;;;5.70;;
26946;SDS011;14501;52.282;10.560;2023-08-06T02:21:57;9.82;;;6.25;;
26946;SDS011;14501;52.282;10.560;2023-08-06T02:24:23;8.45;;;6.03;;
26946;SDS011;14501;52.282;10.560;2023-08-06T02:26:48;6.30;;;5.38;;
26946;SDS011;14501;52.282;10.560;2023-08-06T02:29:16;6.00;;;5.07;;
26946;SDS011;14501;52.282;10.560;2023-08-06T02:31:42;9.85;;;5.80;;
26946;SDS011;14501;52.282;10.560;2023-08-06T02:34:07;8.63;;;5.72;;
26946;SDS011;14501;52.282;10.560;2023-08-06T02:36:33;9.10;;;6.53;;
26946;SDS011;14501;52.282;10.560;2023-08-06T02:38:59;9.52;;;6.50;;
26946;SDS011;14501;52.282;10.560;2023-08-06T02:41:24;8.68;;;6.80;;
26946;SDS011;14501;52.282;10.560;2023-08-06T02:43:50;9.35;;;6.38;;
26946;SDS011;14501;52.282;10.560;2023-08-06T02:46:15;8.23;;;6.18;;
26946;SDS011;14501;52.282;10.560;2023-08-06T02:48:41;9.32;;;6.43;;
26946;SDS011;14501;52.282;10.560;2023-08-06T02:51:07;8.30;;;6.28;;
26946;SDS011;14501;52.282;10.560;2023-08-06T02:53:33;8.88;;;6.75;;
26946;SDS011;14501;52.282;10.560;2023-08-06T02:55:58;11.48;;;6.53;;
26946;SDS011;14501;52.282;10.560;2023-08-06T02:58:24;9.75;;;6.88;;
26946;SDS011;14501;52.282;10.560;2023-08-06T03:01:02;9.85;;;7.15;;
26946;SDS011;14501;52.282;10.560;2023-08-06T03:03:33;8.05;;;6.65;;
26946;SDS011;14501;52.282;10.560;2023-08-06T03:05:59;13.32;;;7.28;;
26946;SDS011;14501;52.282;10.560;2023-08-06T03:08:25;12.48;;;7.18;;
26946;SDS011;14501;52.282;10.560;2023-08-06T03:10:51;8.55;;;6.78;;
26946;SDS011;14501;52.282;10.560;2023-08-06T03:13:17;9.68;;;7.43;;
26946;SDS011;14501;52.282;10.560;2023-08-06T03:15:43;13.40;;;7.85;;
26946;SDS011;14501;52.282;10.560;2023-08-06T03:18:16;11.13;;;7.28;;
26946;SDS011;14501;52.282;10.560;2023-08-06T03:20:42;10.70;;;7.88;;
26946;SDS011;14501;52.282;10.560;2023-08-06T03:23:07;12.20;;;7.70;;
26946;SDS011;14501;52.282;10.560;2023-08-06T03:25:35;12.25;;;8.10;;
26946;SDS011;14501;52.282;10.560;2023-08-06T03:28:01;14.45;;;7.97;;
26946;SDS011;14501;52.282;10.560;2023-08-06T03:30:27;13.90;;;8.55;;
26946;SDS011;14501;52.282;10.560;2023-08-06T03:32:52;10.88;;;8.30;;
26946;SDS011;14501;52.282;10.560;2023-08-06T03:35:18;10.93;;;7.55;;
26946;SDS011;14501;52.282;10.560;2023-08-06T03:37:44;11.52;;;7.78;;
26946;SDS011;14501;52.282;10.560;2023-08-06T03:40:09;10.60;;;7.45;;
26946;SDS011;14501;52.282;10.560;2023-08-06T03:42:35;12.70;;;8.00;;
26946;SDS011;14501;52.282;10.560;2023-08-06T03:45:01;13.02;;;7.50;;
26946;SDS011;14501;52.282;10.560;2023-08-06T03:47:26;12.75;;;8.25;;
26946;SDS011;14501;52.282;10.560;2023-08-06T03:49:52;12.10;;;7.50;;
26946;SDS011;14501;52.282;10.560;2023-08-06T03:52:18;14.45;;;8.48;;
26946;SDS011;14501;52.282;10.560;2023-08-06T03:54:43;15.77;;;8.80;;
26946;SDS011;14501;52.282;10.560;2023-08-06T03:57:09;11.82;;;8.02;;
26946;SDS011;14501;52.282;10.560;2023-08-06T03:59:35;11.23;;;7.68;;
26946;SDS011;14501;52.282;10.560;2023-08-06T04:02:01;12.32;;;8.02;;
26946;SDS011;14501;52.282;10.560;2023-08-06T04:04:27;10.65;;;8.23;;
26946;SDS011;14501;52.282;10.560;2023-08-06T04:06:53;11.80;;;7.60;;
26946;SDS011;14501;52.282;10.560;2023-08-06T04:09:18;15.50;;;7.95;;
26946;SDS011;14501;52.282;10.560;2023-08-06T04:11:44;13.20;;;8.43;;
26946;SDS011;14501;52.282;10.560;2023-08-06T04:14:10;11.60;;;8.57;;
26946;SDS011;14501;52.282;10.560;2023-08-06T04:16:35;13.10;;;8.07;;
26946;SDS011;14501;52.282;10.560;2023-08-06T04:19:01;15.23;;;7.97;;
26946;SDS011;14501;52.282;10.560;2023-08-06T04:21:26;11.48;;;7.57;;
26946;SDS011;14501;52.282;10.560;2023-08-06T04:23:52;13.82;;;8.43;;
26946;SDS011;14501;52.282;10.560;2023-08-06T04:26:18;16.38;;;7.90;;
26946;SDS011;14501;52.282;10.560;2023-08-06T04:28:43;11.95;;;8.38;;
26946;SDS011;14501;52.282;10.560;2023-08-06T04:31:09;13.73;;;7.72;;
26946;SDS011;14501;52.282;10.560;2023-08-06T04:33:34;10.48;;;7.75;;
26946;SDS011;14501;52.282;10.560;2023-08-06T04:36:00;10.63;;;7.70;;
26946;SDS011;14501;52.282;10.560;2023-08-06T04:38:26;12.70;;;8.07;;
26946;SDS011;14501;52.282;10.560;2023-08-06T04:40:52;12.70;;;7.50;;
26946;SDS011;14501;52.282;10.560;2023-08-06T04:43:17;12.15;;;7.85;;
26946;SDS011;14501;52.282;10.560;2023-08-06T04:45:46;10.65;;;7.65;;
26946;SDS011;14501;52.282;10.560;2023-08-06T04:48:17;13.30;;;7.35;;
26946;SDS011;14501;52.282;10.560;2023-08-06T04:50:46;11.32;;;8.00;;
26946;SDS011;14501;52.282;10.560;2023-08-06T04:53:12;13.10;;;7.90;;
26946;SDS011;14501;52.282;10.560;2023-08-06T04:55:38;13.25;;;7.97;;
26946;SDS011;14501;52.282;10.560;2023-08-06T04:58:04;10.57;;;7.55;;
26946;SDS011;14501;52.282;10.560;2023-08-06T05:00:29;15.10;;;7.95;;
26946;SDS011;14501;52.282;10.560;2023-08-06T05:02:56;11.38;;;8.07;;
26946;SDS011;14501;52.282;10.560;2023-08-06T05:05:21;15.20;;;8.80;;
26946;SDS011;14501;52.282;10.560;2023-08-06T05:07:48;12.02;;;8.20;;
26946;SDS011;14501;52.282;10.560;2023-08-06T05:10:14;12.82;;;8.52;;
26946;SDS011;14501;52.282;10.560;2023-08-06T05:12:40;11.57;;;7.93;;
26946;SDS011;14501;52.282;10.560;2023-08-06T05:15:05;14.10;;;7.82;;
26946;SDS011;14501;52.282;10.560;2023-08-06T05:17:31;13.90;;;7.95;;
26946;SDS011;14501;52.282;10.560;2023-08-06T05:19:57;9.32;;;7.00;;
26946;SDS011;14501;52.282;10.560;2023-08-06T05:22:22;14.00;;;7.85;;
26946;SDS011;14501;52.282;10.560;2023-08-06T05:24:48;19.38;;;7.80;;
26946;SDS011;14501;52.282;10.560;2023-08-06T05:27:14;14.48;;;7.60;;
26946;SDS011;14501;52.282;10.560;2023-08-06T05:29:39;9.38;;;7.20;;
26946;SDS011;14501;52.282;10.560;2023-08-06T05:32:05;14.32;;;7.88;;
26946;SDS011;14501;52.282;10.560;2023-08-06T05:34:31;11.50;;;6.95;;
26946;SDS011;14501;52.282;10.560;2023-08-06T05:36:56;9.50;;;6.63;;
26946;SDS011;14501;52.282;10.560;2023-08-06T05:39:22;7.40;;;6.43;;
26946;SDS011;14501;52.282;10.560;2023-08-06T05:41:47;13.15;;;6.53;;
26946;SDS011;14501;52.282;10.560;2023-08-06T05:44:13;6.88;;;5.50;;
26946;SDS011;14501;52.282;10.560;2023-08-06T05:46:39;7.53;;;5.25;;
26946;SDS011;14501;52.282;10.560;2023-08-06T05:49:04;7.28;;;5.25;;
26946;SDS011;14501;52.282;10.560;2023-08-06T05:51:30;7.55;;;4.78;;
26946;SDS011;14501;52.282;10.560;2023-08-06T05:53:55;5.03;;;4.25;;
26946;SDS011;14501;52.282;10.560;2023-08-06T05:56:21;5.75;;;4.90;;
26946;SDS011;14501;52.282;10.560;2023-08-06T05:58:47;6.45;;;5.13;;
26946;SDS011;14501;52.282;10.560;2023-08-06T06:01:12;8.18;;;5.55;;
26946;SDS011;14501;52.282;10.560;2023-08-06T06:03:38;8.40;;;4.75;;
26946;SDS011;14501;52.282;10.560;2023-08-06T06:06:03;8.15;;;5.20;;
26946;SDS011;14501;52.282;10.560;2023-08-06T06:08:29;8.77;;;5.60;;
26946;SDS011;14501;52.282;10.560;2023-08-06T06:10:55;7.55;;;5.00;;
26946;SDS011;14501;52.282;10.560;2023-08-06T06:13:20;8.00;;;4.82;;
26946;SDS011;14501;52.282;10.560;2023-08-06T06:15:46;8.23;;;4.75;;
26946;SDS011;14501;52.282;10.560;2023-08-06T06:18:12;8.40;;;5.05;;
26946;SDS011;14501;52.282;10.560;2023-08-06T06:20:38;5.50;;;4.32;;
26946;SDS011;14501;52.282;10.560;2023-08-06T06:23:04;6.45;;;4.13;;
26946;SDS011;14501;52.282;10.560;2023-08-06T06:25:30;4.10;;;3.70;;
26946;SDS011;14501;52.282;10.560;2023-08-06T06:27:55;4.88;;;4.15;;
26946;SDS011;14501;52.282;10.560;2023-08-06T06:30:21;7.15;;;4.05;;
26946;SDS011;14501;52.282;10.560;2023-08-06T06:32:46;3.67;;;3.13;;
26946;SDS011;14501;52.282;10.560;2023-08-06T06:35:12;12.52;;;3.78;;
26946;SDS011;14501;52.282;10.560;2023-08-06T06:37:38;6.32;;;3.90;;
26946;SDS011;14501;52.282;10.560;2023-08-06T06:40:04;5.13;;;3.42;;
26946;SDS011;14501;52.282;10.560;2023-08-06T06:42:30;5.35;;;3.22;;
26946;SDS011;14501;52.282;10.560;2023-08-06T06:44:55;2.90;;;2.65;;
26946;SDS011;14501;52.282;10.560;2023-08-06T06:47:21;5.75;;;3.40;;
26946;SDS011;14501;52.282;10.560;2023-08-06T06:49:46;3.22;;;2.58;;
26946;SDS011;14501;52.282;10.560;2023-08-06T06:52:12;4.05;;;2.63;;
26946;SDS011;14501;52.282;10.560;2023-08-06T06:54:38;3.15;;;2.80;;
26946;SDS011;14501;52.282;10.560;2023-08-06T06:57:03;2.53;;;2.33;;
26946;SDS011;14501;52.282;10.560;2023-08-06T06:59:29;7.50;;;2.35;;
26946;SDS011;14501;52.282;10.560;2023-08-06T07:01:55;2.33;;;2.10;;
26946;SDS011;14501;52.282;10.560;2023-08-06T07:04:21;2.53;;;2.10;;
26946;SDS011;14501;52.282;10.560;2023-08-06T07:06:47;4.75;;;2.20;;
26946;SDS011;14501;52.282;10.560;2023-08-06T07:09:12;2.17;;;1.73;;
26946;SDS011;14501;52.282;10.560;2023-08-06T07:11:38;0.82;;;0.82;;
26946;SDS011;14501;52.282;10.560;2023-08-06T07:14:03;3.45;;;1.50;;
26946;SDS011;14501;52.282;10.560;2023-08-06T07:16:29;2.33;;;1.60;;
26946;SDS011;14501;52.282;10.560;2023-08-06T07:18:54;1.55;;;1.45;;
26946;SDS011;14501;52.282;10.560;2023-08-06T07:21:20;2.45;;;1.85;;
26946;SDS011;14501;52.282;10.560;2023-08-06T07:23:46;6.35;;;1.77;;
26946;SDS011;14501;52.282;10.560;2023-08-06T07:26:14;2.78;;;1.50;;
26946;SDS011;14501;52.282;10.560;2023-08-06T07:28:40;2.35;;;1.45;;
26946;SDS011;14501;52.282;10.560;2023-08-06T07:31:06;3.22;;;1.50;;
26946;SDS011;14501;52.282;10.560;2023-08-06T07:33:31;2.00;;;1.55;;
26946;SDS011;14501;52.282;10.560;2023-08-06T07:35:57;1.65;;;1.52;;
26946;SDS011;14501;52.282;10.560;2023-08-06T07:38:23;2.75;;;1.38;;
26946;SDS011;14501;52.282;10.560;2023-08-06T07:40:49;2.83;;;1.80;;
26946;SDS011;14501;52.282;10.560;2023-08-06T07:43:14;4.13;;;1.70;;
26946;SDS011;14501;52.282;10.560;2023-08-06T07:45:40;3.15;;;1.55;;
26946;SDS011;14501;52.282;10.560;2023-08-06T07:48:05;2.03;;;1.60;;
26946;SDS011;14501;52.282;10.560;2023-08-06T07:50:31;1.60;;;1.30;;
26946;SDS011;14501;52.282;10.560;2023-08-06T07:52:57;2.97;;;1.40;;
26946;SDS011;14501;52.282;10.560;2023-08-06T07:55:22;1.38;;;1.25;;
26946;SDS011;14501;52.282;10.560;2023-08-06T07:57:48;1.58;;;1.35;;
26946;SDS011;14501;52.282;10.560;2023-08-06T08:00:13;2.75;;;1.58;;
26946;SDS011;14501;52.282;10.560;2023-08-06T08:02:39;6.00;;;1.70;;
26946;SDS011;14501;52.282;10.560;2023-08-06T08:05:05;1.70;;;1.48;;
26946;SDS011;14501;52.282;10.560;2023-08-06T08:07:32;2.13;;;1.33;;
26946;SDS011;14501;52.282;10.560;2023-08-06T08:09:58;3.47;;;1.40;;
26946;SDS011;14501;52.282;10.560;2023-08-06T08:12:23;2.40;;;1.42;;
26946;SDS011;14501;52.282;10.560;2023-08-06T08:14:49;2.38;;;1.77;;
26946;SDS011;14501;52.282;10.560;2023-08-06T08:17:14;2.22;;;1.38;;
26946;SDS011;14501;52.282;10.560;2023-08-06T08:19:40;4.72;;;1.83;;
26946;SDS011;14501;52.282;10.560;2023-08-06T08:22:06;2.95;;;1.60;;
26946;SDS011;14501;52.282;10.560;2023-08-06T08:24:31;2.45;;;1.67;;
26946;SDS011;14501;52.282;10.560;2023-08-06T08:26:57;2.70;;;1.52;;
26946;SDS011;14501;52.282;10.560;2023-08-06T08:29:23;1.70;;;1.60;;
26946;SDS011;14501;52.282;10.560;2023-08-06T08:31:48;2.95;;;1.50;;
26946;SDS011;14501;52.282;10.560;2023-08-06T08:34:15;2.05;;;1.50;;
26946;SDS011;14501;52.282;10.560;2023-08-06T08:36:41;2.72;;;1.67;;
26946;SDS011;14501;52.282;10.560;2023-08-06T08:39:07;1.70;;;1.60;;
26946;SDS011;14501;52.282;10.560;2023-08-06T08:41:33;3.20;;;1.50;;
26946;SDS011;14501;52.282;10.560;2023-08-06T08:44:00;2.83;;;1.48;;
26946;SDS011;14501;52.282;10.560;2023-08-06T08:46:26;3.65;;;1.50;;
26946;SDS011;14501;52.282;10.560;2023-08-06T08:48:54;3.17;;;1.40;;
26946;SDS011;14501;52.282;10.560;2023-08-06T08:51:21;8.30;;;1.95;;
26946;SDS011;14501;52.282;10.560;2023-08-06T08:53:48;3.60;;;1.30;;
26946;SDS011;14501;52.282;10.560;2023-08-06T08:56:17;3.88;;;1.17;;
26946;SDS011;14501;52.282;10.560;2023-08-06T08:58:44;3.83;;;1.30;;
26946;SDS011;14501;52.282;10.560;2023-08-06T09:01:10;3.30;;;1.60;;
26946;SDS011;14501;52.282;10.560;2023-08-06T09:03:36;2.00;;;1.38;;
26946;SDS011;14501;52.282;10.560;2023-08-06T09:06:02;1.45;;;1.20;;
26946;SDS011;14501;52.282;10.560;2023-08-06T09:08:32;1.50;;;1.40;;
26946;SDS011;14501;52.282;10.560;2023-08-06T09:11:01;2.28;;;1.17;;
26946;SDS011;14501;52.282;10.560;2023-08-06T09:13:27;1.65;;;1.38;;
26946;SDS011;14501;52.282;10.560;2023-08-06T09:15:53;1.55;;;1.40;;
26946;SDS011;14501;52.282;10.560;2023-08-06T09:18:29;2.75;;;1.50;;
26946;SDS011;14501;52.282;10.560;2023-08-06T09:20:55;1.20;;;1.10;;
26946;SDS011;14501;52.282;10.560;2023-08-06T09:23:27;1.40;;;1.30;;
26946;SDS011;14501;52.282;10.560;2023-08-06T09:25:54;151.80;;;9.88;;
26946;SDS011;14501;52.282;10.560;2023-08-06T09:28:20;3.80;;;1.33;;
26946;SDS011;14501;52.282;10.560;2023-08-06T09:30:46;3.03;;;1.20;;
26946;SDS011;14501;52.282;10.560;2023-08-06T09:33:14;2.40;;;1.20;;
26946;SDS011;14501;52.282;10.560;2023-08-06T09:35:43;1.42;;;1.10;;
26946;SDS011;14501;52.282;10.560;2023-08-06T09:38:09;1.73;;;1.20;;
26946;SDS011;14501;52.282;10.560;2023-08-06T09:40:36;3.55;;;1.40;;
26946;SDS011;14501;52.282;10.560;2023-08-06T09:43:02;1.33;;;1.23;;
26946;SDS011;14501;52.282;10.560;2023-08-06T09:45:32;1.20;;;1.10;;
26946;SDS011;14501;52.282;10.560;2023-08-06T09:47:58;1.08;;;0.90;;
26946;SDS011;14501;52.282;10.560;2023-08-06T09:50:28;2.15;;;0.90;;
26946;SDS011;14501;52.282;10.560;2023-08-06T09:52:56;2.30;;;1.05;;
26946;SDS011;14501;52.282;10.560;2023-08-06T09:55:23;1.02;;;0.88;;
26946;SDS011;14501;52.282;10.560;2023-08-06T09:57:51;6.07;;;1.20;;
26946;SDS011;14501;52.282;10.560;2023-08-06T10:00:17;6.25;;;1.10;;
26946;SDS011;14501;52.282;10.560;2023-08-06T10:02:43;1.13;;;1.08;;
26946;SDS011;14501;52.282;10.560;2023-08-06T10:05:10;1.10;;;1.00;;
26946;SDS011;14501;52.282;10.560;2023-08-06T10:07:35;2.15;;;0.80;;
26946;SDS011;14501;52.282;10.560;2023-08-06T10:10:04;2.75;;;1.30;;
26946;SDS011;14501;52.282;10.560;2023-08-06T10:12:32;1.75;;;1.05;;
26946;SDS011;14501;52.282;10.560;2023-08-06T10:15:09;1.67;;;0.93;;
26946;SDS011;14501;52.282;10.560;2023-08-06T10:17:37;1.45;;;1.10;;
26946;SDS011;14501;52.282;10.560;2023-08-06T10:20:04;1.85;;;1.35;;
26946;SDS011;14501;52.282;10.560;2023-08-06T10:22:32;3.58;;;1.10;;
26946;SDS011;14501;52.282;10.560;2023-08-06T10:24:58;1.00;;;1.00;;
26946;SDS011;14501;52.282;10.560;2023-08-06T10:27:35;1.70;;;1.08;;
26946;SDS011;14501;52.282;10.560;2023-08-06T10:32:55;1.02;;;1.00;;
26946;SDS011;14501;52.282;10.560;2023-08-06T10:35:29;1.38;;;0.88;;
26946;SDS011;14501;52.282;10.560;2023-08-06T10:38:15;2.33;;;1.05;;
26946;SDS011;14501;52.282;10.560;2023-08-06T10:43:29;2.13;;;1.42;;
26946;SDS011;14501;52.282;10.560;2023-08-06T10:45:57;1.35;;;1.17;;
26946;SDS011;14501;52.282;10.560;2023-08-06T10:48:36;3.95;;;1.23;;
26946;SDS011;14501;52.282;10.560;2023-08-06T10:51:06;5.60;;;1.00;;
26946;SDS011;14501;52.282;10.560;2023-08-06T10:53:33;1.20;;;1.10;;
26946;SDS011;14501;52.282;10.560;2023-08-06T10:55:59;3.28;;;1.30;;
26946;SDS011;14501;52.282;10.560;2023-08-06T10:58:25;1.67;;;1.00;;
26946;SDS011;14501;52.282;10.560;2023-08-06T11:00:51;2.80;;;1.13;;
26946;SDS011;14501;52.282;10.560;2023-08-06T11:03:17;1.13;;;1.00;;
26946;SDS011;14501;52.282;10.560;2023-08-06T11:05:48;1.25;;;1.10;;
26946;SDS011;14501;52.282;10.560;2023-08-06T11:08:26;1.37;;;1.20;;
26946;SDS011;14501;52.282;10.560;2023-08-06T11:10:53;2.53;;;1.27;;
26946;SDS011;14501;52.282;10.560;2023-08-06T11:13:20;4.45;;;1.48;;
26946;SDS011;14501;52.282;10.560;2023-08-06T11:15:46;1.50;;;1.17;;
26946;SDS011;14501;52.282;10.560;2023-08-06T11:18:12;1.63;;;1.38;;
26946;SDS011;14501;52.282;10.560;2023-08-06T11:20:38;4.07;;;1.52;;
26946;SDS011;14501;52.282;10.560;2023-08-06T11:23:05;1.40;;;1.30;;
26946;SDS011;14501;52.282;10.560;2023-08-06T11:25:31;1.40;;;1.30;;
26946;SDS011;14501;52.282;10.560;2023-08-06T11:28:01;3.05;;;1.30;;
26946;SDS011;14501;52.282;10.560;2023-08-06T11:30:26;1.23;;;1.13;;
26946;SDS011;14501;52.282;10.560;2023-08-06T11:32:52;2.00;;;1.35;;
26946;SDS011;14501;52.282;10.560;2023-08-06T11:35:19;3.38;;;1.50;;
26946;SDS011;14501;52.282;10.560;2023-08-06T11:37:45;3.15;;;1.30;;
26946;SDS011;14501;52.282;10.560;2023-08-06T11:40:11;1.30;;;1.20;;
26946;SDS011;14501;52.282;10.560;2023-08-06T11:42:39;2.10;;;1.50;;
26946;SDS011;14501;52.282;10.560;2023-08-06T11:45:05;1.77;;;1.40;;
26946;SDS011;14501;52.282;10.560;2023-08-06T11:47:34;1.73;;;1.30;;
26946;SDS011;14501;52.282;10.560;2023-08-06T11:50:04;1.35;;;1.30;;
26946;SDS011;14501;52.282;10.560;2023-08-06T11:52:30;1.30;;;1.20;;
26946;SDS011;14501;52.282;10.560;2023-08-06T11:55:03;1.55;;;1.20;;
26946;SDS011;14501;52.282;10.560;2023-08-06T11:57:40;1.50;;;1.40;;
26946;SDS011;14501;52.282;10.560;2023-08-06T12:00:10;1.33;;;1.13;;
26946;SDS011;14501;52.282;10.560;2023-08-06T12:02:38;2.58;;;1.35;;
26946;SDS011;14501;52.282;10.560;2023-08-06T12:07:48;3.67;;;1.50;;
26946;SDS011;14501;52.282;10.560;2023-08-06T12:10:15;1.40;;;1.30;;
26946;SDS011;14501;52.282;10.560;2023-08-06T12:12:41;1.40;;;1.30;;
26946;SDS011;14501;52.282;10.560;2023-08-06T12:15:07;1.88;;;1.10;;
26946;SDS011;14501;52.282;10.560;2023-08-06T12:17:34;3.13;;;1.42;;
26946;SDS011;14501;52.282;10.560;2023-08-06T12:20:01;1.50;;;1.40;;
26946;SDS011;14501;52.282;10.560;2023-08-06T12:22:30;3.88;;;1.83;;
26946;SDS011;14501;52.282;10.560;2023-08-06T12:25:00;2.25;;;1.38;;
26946;SDS011;14501;52.282;10.560;2023-08-06T12:27:27;2.78;;;1.40;;
26946;SDS011;14501;52.282;10.560;2023-08-06T12:29:53;2.03;;;1.40;;
26946;SDS011;14501;52.282;10.560;2023-08-06T12:32:19;1.20;;;1.10;;
26946;SDS011;14501;52.282;10.560;2023-08-06T12:34:44;1.35;;;1.10;;
26946;SDS011;14501;52.282;10.560;2023-08-06T12:37:12;1.42;;;1.33;;
26946;SDS011;14501;52.282;10.560;2023-08-06T12:39:38;1.23;;;1.13;;
26946;SDS011;14501;52.282;10.560;2023-08-06T12:42:04;0.93;;;0.90;;
26946;SDS011;14501;52.282;10.560;2023-08-06T12:44:31;1.70;;;1.20;;
26946;SDS011;14501;52.282;10.560;2023-08-06T12:46:57;1.40;;;1.30;;
26946;SDS011;14501;52.282;10.560;2023-08-06T12:49:23;1.75;;;1.15;;
26946;SDS011;14501;52.282;10.560;2023-08-06T12:51:50;1.70;;;1.45;;
26946;SDS011;14501;52.282;10.560;2023-08-06T12:54:19;1.30;;;1.20;;
26946;SDS011;14501;52.282;10.560;2023-08-06T12:56:45;1.73;;;1.60;;
26946;SDS011;14501;52.282;10.560;2023-08-06T12:59:13;1.70;;;1.33;;
26946;SDS011;14501;52.282;10.560;2023-08-06T13:01:39;1.33;;;1.23;;
26946;SDS011;14501;52.282;10.560;2023-08-06T13:04:05;1.55;;;1.25;;
26946;SDS011;14501;52.282;10.560;2023-08-06T13:06:30;5.85;;;1.40;;
26946;SDS011;14501;52.282;10.560;2023-08-06T13:09:00;1.73;;;1.30;;
26946;SDS011;14501;52.282;10.560;2023-08-06T13:11:26;1.30;;;1.20;;
26946;SDS011;14501;52.282;10.560;2023-08-06T13:13:52;1.80;;;1.30;;
26946;SDS011;14501;52.282;10.560;2023-08-06T13:16:17;1.40;;;1.30;;
26946;SDS011;14501;52.282;10.560;2023-08-06T13:18:43;1.38;;;1.27;;
26946;SDS011;14501;52.282;10.560;2023-08-06T13:21:09;3.03;;;1.30;;
26946;SDS011;14501;52.282;10.560;2023-08-06T13:23:34;2.38;;;1.13;;
26946;SDS011;14501;52.282;10.560;2023-08-06T13:26:00;1.98;;;1.25;;
26946;SDS011;14501;52.282;10.560;2023-08-06T13:28:25;1.13;;;1.13;;
26946;SDS011;14501;52.282;10.560;2023-08-06T13:30:51;3.83;;;1.30;;
26946;SDS011;14501;52.282;10.560;2023-08-06T13:33:17;1.50;;;1.30;;
26946;SDS011;14501;52.282;10.560;2023-08-06T13:35:42;2.70;;;1.30;;
26946;SDS011;14501;52.282;10.560;2023-08-06T13:38:08;1.77;;;1.25;;
26946;SDS011;14501;52.282;10.560;2023-08-06T13:40:33;3.30;;;1.35;;
26946;SDS011;14501;52.282;10.560;2023-08-06T13:43:00;1.70;;;1.30;;
26946;SDS011;14501;52.282;10.560;2023-08-06T13:45:25;2.47;;;1.70;;
26946;SDS011;14501;52.282;10.560;2023-08-06T13:47:51;1.63;;;1.20;;
26946;SDS011;14501;52.282;10.560;2023-08-06T13:50:17;1.30;;;1.20;;
26946;SDS011;14501;52.282;10.560;2023-08-06T13:52:42;2.90;;;1.30;;
26946;SDS011;14501;52.282;10.560;2023-08-06T13:55:08;1.52;;;1.42;;
26946;SDS011;14501;52.282;10.560;2023-08-06T13:57:34;2.80;;;1.52;;
26946;SDS011;14501;52.282;10.560;2023-08-06T14:00:00;3.00;;;1.58;;
26946;SDS011;14501;52.282;10.560;2023-08-06T14:02:26;1.60;;;1.20;;
26946;SDS011;14501;52.282;10.560;2023-08-06T14:04:55;1.50;;;1.40;;
26946;SDS011;14501;52.282;10.560;2023-08-06T14:07:20;1.55;;;1.45;;
26946;SDS011;14501;52.282;10.560;2023-08-06T14:09:46;2.13;;;1.40;;
26946;SDS011;14501;52.282;10.560;2023-08-06T14:12:12;1.80;;;1.55;;
26946;SDS011;14501;52.282;10.560;2023-08-06T14:14:38;3.42;;;1.40;;
26946;SDS011;14501;52.282;10.560;2023-08-06T14:17:04;1.52;;;1.30;;
26946;SDS011;14501;52.282;10.560;2023-08-06T14:19:30;1.40;;;1.30;;
26946;SDS011;14501;52.282;10.560;2023-08-06T14:21:56;4.35;;;1.60;;
26946;SDS011;14501;52.282;10.560;2023-08-06T14:24:21;1.60;;;1.50;;
26946;SDS011;14501;52.282;10.560;2023-08-06T14:26:47;1.65;;;1.55;;
26946;SDS011;14501;52.282;10.560;2023-08-06T14:29:13;1.60;;;1.27;;
26946;SDS011;14501;52.282;10.560;2023-08-06T14:31:39;1.75;;;1.30;;
26946;SDS011;14501;52.282;10.560;2023-08-06T14:34:05;1.40;;;1.30;;
26946;SDS011;14501;52.282;10.560;2023-08-06T14:36:31;1.58;;;1.30;;
26946;SDS011;14501;52.282;10.560;2023-08-06T14:38:57;1.67;;;1.50;;
26946;SDS011;14501;52.282;10.560;2023-08-06T14:41:22;1.88;;;1.67;;
26946;SDS011;14501;52.282;10.560;2023-08-06T14:43:49;1.80;;;1.67;;
26946;SDS011;14501;52.282;10.560;2023-08-06T14:46:15;1.92;;;1.70;;
26946;SDS011;14501;52.282;10.560;2023-08-06T14:48:41;1.73;;;1.63;;